KDCM

Chester Catawba Regional Airport

Chester, South Carolina, USA
METAR KDCM 172055Z AUTO 34005KT 10SM OVC033 11/07 A3010 RMK AO2
Observed Flight Rules
Feb-17 @ 20:55 UTC (35 minutes ago) Visual Flight Rules
Wind Visibility Clouds
340° at 5 knots 10 miles
  • Overcast at 3,300' AGL
Temperatures Readings
Current 11°C / 52°F
Dewpoint 7°C / 45°F
Humidity 77%
Altimeter 30.1" Hg
Pressure 1019 hPa
Elevation 200
METAR KDCM 172055Z AUTO 34005KT 10SM OVC033 11/07 A3010 RMK AO2
Observed Flight Rules
Feb-17 @ 20:55 UTC
(35 minutes ago)
VFR
Wind Visibility
340° at 5 knots 10 miles
Clouds
  • Overcast at 3,300' AGL
Temperature Dewpoint
11°C / 52°F 7°C / 45°F
Humidity Altimeter Pressure
77% 30.1" Hg 1019 hPa